Time;durP1;ratioP1;P1;durP2;ratioP2;P2;SDS_P1;SDS_P2;PMS_P1;PMS_P2;Temp;Humidity;BMP_temperature;BMP_pressure;BME280_temperature;BME280_humidity;BME280_pressure;Samples;Min_cycle;Max_cycle;Signal;HPM_P1;HPM_P2
2021/11/19 00:01:38;;;;;;;;;;;23.90;50.00;;;;;;1605015;74;756;-66
2021/11/19 00:03:40;;;;;;;;;;;23.90;50.00;;;;;;1605168;74;1123;-64
2021/11/19 00:05:42;;;;;;;;;;;23.90;50.00;;;;;;1599727;74;777;-65
2021/11/19 00:07:44;;;;;;;;;;;23.90;49.90;;;;;;1594211;74;1937;-65
2021/11/19 00:09:46;;;;;;;;;;;23.90;49.90;;;;;;1602475;74;720;-66
2021/11/19 00:11:48;;;;;;;;;;;23.90;49.90;;;;;;1596434;74;759;-63
2021/11/19 00:13:50;;;;;;;;;;;23.90;49.80;;;;;;1595309;74;1216;-67
2021/11/19 00:15:52;;;;;;;;;;;23.80;49.70;;;;;;1598469;74;808;-65
2021/11/19 00:17:54;;;;;;;;;;;23.80;49.70;;;;;;1600935;74;898;-66
2021/11/19 00:19:56;;;;;;;;;;;23.90;49.80;;;;;;1596156;74;779;-64
2021/11/19 00:21:58;;;;;;;;;;;23.90;49.80;;;;;;1592626;74;770;-64
2021/11/19 00:23:59;;;;;;;;;;;23.90;49.90;;;;;;1602750;74;1089;-65
2021/11/19 00:26:01;;;;;;;;;;;23.90;49.90;;;;;;1599666;74;1938;-65
2021/11/19 00:28:04;;;;;;;;;;;23.90;49.90;;;;;;1591395;74;707;-65
2021/11/19 00:30:07;;;;;;;;;;;23.90;49.90;;;;;;1596299;74;723;-65
2021/11/19 00:32:10;;;;;;;;;;;23.80;49.80;;;;;;1591576;74;736;-65
2021/11/19 00:34:12;;;;;;;;;;;23.80;49.80;;;;;;1609067;74;1117;-65
2021/11/19 00:36:14;;;;;;;;;;;23.80;49.80;;;;;;1592208;74;878;-65
2021/11/19 00:38:17;;;;;;;;;;;23.80;49.90;;;;;;1592190;74;796;-65
2021/11/19 00:40:20;;;;;;;;;;;23.90;49.90;;;;;;1595691;74;699;-65
2021/11/19 00:42:22;;;;;;;;;;;23.80;49.80;;;;;;1592437;74;1123;-65
2021/11/19 00:44:24;;;;;;;;;;;23.80;49.80;;;;;;1591864;74;798;-66
2021/11/19 00:46:26;;;;;;;;;;;23.80;49.90;;;;;;1596724;74;1923;-65
2021/11/19 00:48:31;;;;;;;;;;;23.90;50.00;;;;;;1600995;74;727;-67
2021/11/19 00:50:34;;;;;;;;;;;23.80;49.90;;;;;;1592161;74;1445;-66
2021/11/19 00:52:36;;;;;;;;;;;23.80;49.90;;;;;;1598387;74;1916;-65
2021/11/19 00:54:38;;;;;;;;;;;23.80;49.80;;;;;;1606462;74;774;-65
2021/11/19 00:56:41;;;;;;;;;;;23.80;49.80;;;;;;1594918;74;769;-64
2021/11/19 00:58:43;;;;;;;;;;;23.90;50.00;;;;;;1596415;74;789;-66
2021/11/19 01:00:47;;;;;;;;;;;23.80;49.90;;;;;;1601137;74;788;-67
2021/11/19 01:02:49;;;;;;;;;;;23.90;50.00;;;;;;1600897;74;1099;-65
2021/11/19 01:04:52;;;;;;;;;;;23.80;49.90;;;;;;1598756;74;756;-65
2021/11/19 01:06:54;;;;;;;;;;;23.70;50.00;;;;;;1589448;74;1936;-67
2021/11/19 01:08:56;;;;;;;;;;;23.80;49.90;;;;;;1591699;74;673;-65
2021/11/19 01:10:59;;;;;;;;;;;23.80;49.90;;;;;;1585235;74;720;-66
2021/11/19 01:13:01;;;;;;;;;;;23.80;49.90;;;;;;1591308;74;1134;-65
2021/11/19 01:15:04;;;;;;;;;;;23.80;50.00;;;;;;1592829;74;658;-65
2021/11/19 01:17:08;;;;;;;;;;;23.80;50.00;;;;;;1591754;74;776;-65
2021/11/19 01:19:11;;;;;;;;;;;23.80;50.10;;;;;;1590080;74;1879;-65
2021/11/19 01:21:15;;;;;;;;;;;23.80;50.00;;;;;;1591678;74;743;-66
2021/11/19 01:23:18;;;;;;;;;;;23.80;50.10;;;;;;1589897;74;1154;-65
2021/11/19 01:25:20;;;;;;;;;;;23.70;50.10;;;;;;1596746;74;717;-63
2021/11/19 01:27:22;;;;;;;;;;;23.80;50.10;;;;;;1591710;74;1936;-65
2021/11/19 01:29:24;;;;;;;;;;;23.80;50.10;;;;;;1591617;74;737;-66
2021/11/19 01:31:30;;;;;;;;;;;23.70;50.10;;;;;;1591777;74;732;-66
2021/11/19 01:33:32;;;;;;;;;;;23.70;50.10;;;;;;1590765;74;1148;-65
2021/11/19 01:35:34;;;;;;;;;;;23.70;50.10;;;;;;1591629;74;875;-65
2021/11/19 01:37:36;;;;;;;;;;;23.70;50.00;;;;;;1591746;74;780;-65
2021/11/19 01:39:38;;;;;;;;;;;23.80;50.00;;;;;;1597249;74;777;-65
2021/11/19 01:41:42;;;;;;;;;;;23.70;50.00;;;;;;1589583;74;705;-66
2021/11/19 01:43:44;;;;;;;;;;;23.70;50.00;;;;;;1597780;74;1142;-65
2021/11/19 01:45:50;;;;;;;;;;;23.80;50.00;;;;;;1592002;74;778;-67
2021/11/19 01:47:53;;;;;;;;;;;23.80;50.00;;;;;;1590763;74;1936;-66
2021/11/19 01:49:55;;;;;;;;;;;23.70;50.00;;;;;;1591958;74;835;-66
2021/11/19 01:51:59;;;;;;;;;;;23.80;50.00;;;;;;1600526;74;715;-66
2021/11/19 01:54:08;;;;;;;;;;;23.80;50.00;;;;;;1590255;74;1131;-65
2021/11/19 01:56:14;;;;;;;;;;;23.70;50.00;;;;;;1597446;74;812;-64
2021/11/19 01:58:20;;;;;;;;;;;23.80;50.10;;;;;;1596575;74;743;-63
2021/11/19 02:00:30;;;;;;;;;;;23.80;50.10;;;;;;1596714;74;782;-65
2021/11/19 02:02:34;;;;;;;;;;;23.70;50.10;;;;;;1595085;74;1155;-65
2021/11/19 02:04:53;;;;;;;;;;;23.70;50.10;;;;;;1593862;74;683;-64
2021/11/19 02:07:05;;;;;;;;;;;23.70;50.10;;;;;;1592239;74;1972;-64
2021/11/19 02:09:09;;;;;;;;;;;23.70;50.10;;;;;;1596699;74;782;-66
2021/11/19 02:11:24;;;;;;;;;;;23.80;50.10;;;;;;1586199;74;670;-65
2021/11/19 02:13:33;;;;;;;;;;;23.80;50.10;;;;;;1587359;74;2276;-65
2021/11/19 02:15:37;;;;;;;;;;;23.70;50.10;;;;;;1596506;74;1880;-65
2021/11/19 02:17:39;;;;;;;;;;;23.80;50.10;;;;;;1566132;75;1562;-65
2021/11/19 02:19:44;;;;;;;;;;;23.80;50.10;;;;;;1571132;75;782;-65
2021/11/19 02:21:50;;;;;;;;;;;23.70;50.10;;;;;;1580475;75;1123;-66
2021/11/19 02:23:53;;;;;;;;;;;23.80;50.10;;;;;;1574958;75;1125;-66
2021/11/19 02:25:57;;;;;;;;;;;23.70;50.10;;;;;;1574693;75;1960;-66
2021/11/19 02:28:01;;;;;;;;;;;23.70;50.10;;;;;;1585955;75;1915;-66
2021/11/19 02:30:07;;;;;;;;;;;23.80;50.10;;;;;;1587095;75;1769;-68
2021/11/19 02:32:11;;;;;;;;;;;23.70;50.00;;;;;;1564348;75;975;-66
2021/11/19 02:34:13;;;;;;;;;;;23.70;50.20;;;;;;1573495;75;1165;-66
2021/11/19 02:36:16;;;;;;;;;;;23.80;50.10;;;;;;1569486;75;801;-68
2021/11/19 02:38:19;;;;;;;;;;;23.70;50.20;;;;;;1568080;75;726;-67
2021/11/19 02:40:22;;;;;;;;;;;23.70;50.10;;;;;;1568205;75;736;-66
2021/11/19 02:42:26;;;;;;;;;;;23.70;50.20;;;;;;1568792;73;1094;-66
2021/11/19 02:44:34;;;;;;;;;;;23.70;50.10;;;;;;1567031;75;1770;-66
2021/11/19 02:46:34;;;;;;;;;;;23.70;50.10;;;;;;1567905;75;1467;-66
2021/11/19 02:48:36;;;;;;;;;;;23.70;50.10;;;;;;1564887;75;1904;-67
2021/11/19 02:50:38;;;;;;;;;;;23.70;50.10;;;;;;1568105;75;747;-68
2021/11/19 02:52:40;;;;;;;;;;;23.70;50.00;;;;;;1564195;75;1141;-67
2021/11/19 02:54:42;;;;;;;;;;;23.70;50.10;;;;;;1570804;75;734;-66
2021/11/19 02:56:44;;;;;;;;;;;23.70;50.10;;;;;;1584354;75;797;-66
2021/11/19 02:58:47;;;;;;;;;;;23.70;50.00;;;;;;1571344;75;802;-67
2021/11/19 03:00:51;;;;;;;;;;;23.60;50.00;;;;;;1567056;75;733;-66
2021/11/19 03:02:53;;;;;;;;;;;23.70;50.00;;;;;;1563559;75;1153;-66
2021/11/19 03:04:56;;;;;;;;;;;23.60;50.00;;;;;;1567579;75;686;-67
2021/11/19 03:06:58;;;;;;;;;;;23.70;50.10;;;;;;1568543;75;1938;-65
2021/11/19 03:09:00;;;;;;;;;;;23.70;50.10;;;;;;1573164;75;752;-65
2021/11/19 03:11:02;;;;;;;;;;;23.70;50.10;;;;;;1579504;75;723;-64
2021/11/19 03:13:05;;;;;;;;;;;23.70;50.10;;;;;;1574034;75;1126;-65
2021/11/19 03:15:08;;;;;;;;;;;23.70;50.10;;;;;;1570495;75;690;-65
2021/11/19 03:17:10;;;;;;;;;;;23.70;50.10;;;;;;1568599;75;911;-65
2021/11/19 03:19:12;;;;;;;;;;;23.60;50.00;;;;;;1568189;75;814;-66
2021/11/19 03:21:16;;;;;;;;;;;23.70;50.10;;;;;;1572692;75;729;-66
2021/11/19 03:23:18;;;;;;;;;;;23.70;50.20;;;;;;1565251;75;1217;-68
2021/11/19 03:25:21;;;;;;;;;;;23.70;50.20;;;;;;1571845;75;725;-66
2021/11/19 03:27:24;;;;;;;;;;;23.70;50.20;;;;;;1566624;75;1938;-66
2021/11/19 03:29:26;;;;;;;;;;;23.70;50.20;;;;;;1564094;75;774;-68
2021/11/19 03:31:28;;;;;;;;;;;23.70;50.20;;;;;;1561934;75;750;-66
2021/11/19 03:33:30;;;;;;;;;;;23.70;50.20;;;;;;1569762;75;1181;-66
2021/11/19 03:35:32;;;;;;;;;;;23.70;50.20;;;;;;1564580;75;710;-66
2021/11/19 03:37:34;;;;;;;;;;;23.70;50.20;;;;;;1568303;75;738;-66
2021/11/19 03:39:37;;;;;;;;;;;23.80;50.20;;;;;;1568623;75;781;-66
2021/11/19 03:41:39;;;;;;;;;;;23.70;50.20;;;;;;1572866;75;702;-69
2021/11/19 03:43:42;;;;;;;;;;;23.80;50.10;;;;;;1575576;73;1184;-68
2021/11/19 03:45:46;;;;;;;;;;;23.70;50.20;;;;;;1577567;75;1079;-65
2021/11/19 03:47:48;;;;;;;;;;;23.80;50.10;;;;;;1564714;75;1946;-66
2021/11/19 03:49:50;;;;;;;;;;;23.80;50.00;;;;;;1568257;75;875;-66
2021/11/19 03:51:54;;;;;;;;;;;23.90;50.00;;;;;;1565833;75;788;-69
2021/11/19 03:53:56;;;;;;;;;;;23.80;50.00;;;;;;1593714;72;2044;-69
2021/11/19 03:55:58;;;;;;;;;;;23.90;50.00;;;;;;1580060;74;719;-67
2021/11/19 03:58:00;;;;;;;;;;;24.00;50.00;;;;;;1583941;74;795;-69
2021/11/19 04:00:04;;;;;;;;;;;24.00;50.10;;;;;;1585130;74;772;-70
2021/11/19 04:02:06;;;;;;;;;;;23.90;50.30;;;;;;1584872;73;877;-69
2021/11/19 04:04:08;;;;;;;;;;;23.90;50.60;;;;;;1583940;74;1173;-69
2021/11/19 04:06:10;;;;;;;;;;;23.90;50.80;;;;;;1601612;73;822;-70
2021/11/19 04:08:12;;;;;;;;;;;23.90;50.80;;;;;;1603345;73;1941;-69
2021/11/19 04:10:14;;;;;;;;;;;23.90;50.90;;;;;;1602688;72;751;-68
2021/11/19 04:12:17;;;;;;;;;;;23.80;50.90;;;;;;1599221;73;780;-66
2021/11/19 04:14:19;;;;;;;;;;;23.80;50.90;;;;;;1598684;73;1131;-69
2021/11/19 04:16:22;;;;;;;;;;;23.80;50.90;;;;;;1592608;73;738;-68
2021/11/19 04:18:24;;;;;;;;;;;23.90;51.10;;;;;;1601559;72;1308;-68
2021/11/19 04:20:26;;;;;;;;;;;23.90;51.10;;;;;;1601768;73;793;-69
2021/11/19 04:22:28;;;;;;;;;;;23.90;51.00;;;;;;1589583;74;836;-69
2021/11/19 04:24:31;;;;;;;;;;;23.90;51.00;;;;;;1592479;72;1077;-67
2021/11/19 04:26:34;;;;;;;;;;;23.80;50.80;;;;;;1594622;72;745;-69
2021/11/19 04:28:36;;;;;;;;;;;23.90;50.90;;;;;;1593284;73;1898;-69
2021/11/19 04:30:40;;;;;;;;;;;23.90;50.80;;;;;;1589138;74;718;-69
2021/11/19 04:32:42;;;;;;;;;;;23.90;50.80;;;;;;1587788;74;1124;-69
2021/11/19 04:34:44;;;;;;;;;;;23.90;50.80;;;;;;1593292;72;741;-68
2021/11/19 04:36:46;;;;;;;;;;;23.90;50.90;;;;;;1588934;74;742;-69
2021/11/19 04:38:48;;;;;;;;;;;23.90;50.80;;;;;;1588745;74;827;-70
2021/11/19 04:40:50;;;;;;;;;;;23.90;50.80;;;;;;1588497;74;814;-69
2021/11/19 04:42:52;;;;;;;;;;;23.90;50.80;;;;;;1591728;74;1142;-70
2021/11/19 04:44:54;;;;;;;;;;;24.00;50.80;;;;;;1588609;74;724;-69
2021/11/19 04:46:56;;;;;;;;;;;24.00;50.70;;;;;;1588521;74;828;-70
2021/11/19 04:48:58;;;;;;;;;;;23.90;50.70;;;;;;1598571;72;1929;-67
2021/11/19 04:51:00;;;;;;;;;;;23.90;50.70;;;;;;1609987;74;778;-66
2021/11/19 04:53:02;;;;;;;;;;;24.00;50.70;;;;;;1608524;73;1153;-69
2021/11/19 04:55:05;;;;;;;;;;;23.90;50.60;;;;;;1604179;73;787;-69
2021/11/19 04:57:07;;;;;;;;;;;23.90;50.60;;;;;;1603718;73;722;-69
2021/11/19 04:59:09;;;;;;;;;;;23.90;50.60;;;;;;1600853;73;796;-66
2021/11/19 05:01:13;;;;;;;;;;;23.90;50.60;;;;;;1603391;73;715;-68
2021/11/19 05:03:15;;;;;;;;;;;24.00;50.50;;;;;;1596772;73;1817;-68
2021/11/19 05:05:18;;;;;;;;;;;23.90;50.60;;;;;;1599095;73;841;-69
2021/11/19 05:07:20;;;;;;;;;;;24.00;50.60;;;;;;1604220;73;689;-69
2021/11/19 05:09:21;;;;;;;;;;;23.90;50.50;;;;;;1603286;73;1941;-70
2021/11/19 05:11:26;;;;;;;;;;;24.00;50.70;;;;;;1598924;73;766;-69
2021/11/19 05:13:29;;;;;;;;;;;24.00;50.70;;;;;;1602535;73;1238;-69
2021/11/19 05:15:31;;;;;;;;;;;24.10;50.80;;;;;;1604387;73;748;-71
2021/11/19 05:17:33;;;;;;;;;;;24.00;50.60;;;;;;1602617;73;764;-71
2021/11/19 05:19:34;;;;;;;;;;;24.00;50.70;;;;;;1604547;73;758;-69
2021/11/19 05:21:36;;;;;;;;;;;24.00;50.70;;;;;;1599954;73;724;-70
2021/11/19 05:23:38;;;;;;;;;;;24.00;50.60;;;;;;1603444;73;1119;-68
2021/11/19 05:25:41;;;;;;;;;;;24.00;50.70;;;;;;1603539;73;769;-68
2021/11/19 05:27:43;;;;;;;;;;;24.00;50.80;;;;;;1605597;73;750;-69
2021/11/19 05:29:45;;;;;;;;;;;24.00;50.70;;;;;;1606610;74;1924;-66
2021/11/19 05:31:47;;;;;;;;;;;24.00;50.80;;;;;;1603559;73;801;-70
2021/11/19 05:33:49;;;;;;;;;;;24.00;50.80;;;;;;1605181;74;1159;-70
2021/11/19 05:35:51;;;;;;;;;;;24.00;50.70;;;;;;1603188;73;765;-71
2021/11/19 05:37:53;;;;;;;;;;;24.00;50.90;;;;;;1602668;72;838;-70
2021/11/19 05:39:54;;;;;;;;;;;24.00;50.80;;;;;;1603126;74;729;-69
2021/11/19 05:41:56;;;;;;;;;;;24.00;50.80;;;;;;1605956;74;665;-69
2021/11/19 05:43:58;;;;;;;;;;;24.20;50.80;;;;;;1603756;73;1074;-70
2021/11/19 05:46:00;;;;;;;;;;;24.10;50.80;;;;;;1603445;73;739;-69
2021/11/19 05:48:03;;;;;;;;;;;24.10;50.70;;;;;;1601565;73;1922;-68
2021/11/19 05:50:05;;;;;;;;;;;24.10;50.70;;;;;;1599472;73;793;-70
2021/11/19 05:52:07;;;;;;;;;;;24.20;50.90;;;;;;1602543;73;861;-69
2021/11/19 05:54:11;;;;;;;;;;;24.10;50.90;;;;;;1599975;73;1177;-69
2021/11/19 05:56:13;;;;;;;;;;;24.10;50.80;;;;;;1602777;73;717;-70
2021/11/19 05:58:15;;;;;;;;;;;24.10;50.80;;;;;;1602292;73;732;-72
2021/11/19 06:00:20;;;;;;;;;;;24.20;50.70;;;;;;1598630;73;707;-70
2021/11/19 06:02:22;;;;;;;;;;;24.10;50.70;;;;;;1601835;73;1141;-69
2021/11/19 06:04:24;;;;;;;;;;;24.20;50.70;;;;;;1600138;74;1112;-71
2021/11/19 06:06:26;;;;;;;;;;;24.10;50.60;;;;;;1595298;73;726;-69
2021/11/19 06:08:28;;;;;;;;;;;24.20;50.60;;;;;;1599071;74;1937;-71
2021/11/19 06:10:31;;;;;;;;;;;24.20;50.60;;;;;;1602562;73;784;-71
2021/11/19 06:12:34;;;;;;;;;;;24.20;50.60;;;;;;1571600;74;776;-71
2021/11/19 06:14:37;;;;;;;;;;;24.20;50.60;;;;;;1614576;73;1175;-71
2021/11/19 06:16:40;;;;;;;;;;;24.20;50.40;;;;;;1599131;73;761;-70
2021/11/19 06:18:43;;;;;;;;;;;24.20;50.50;;;;;;1601579;73;681;-71
2021/11/19 06:20:47;;;;;;;;;;;24.20;50.40;;;;;;1596142;73;616;-70
2021/11/19 06:22:50;;;;;;;;;;;24.20;50.40;;;;;;1596910;73;1154;-71
2021/11/19 06:24:53;;;;;;;;;;;24.20;50.40;;;;;;1590290;73;1844;-66
2021/11/19 06:26:54;;;;;;;;;;;24.20;50.40;;;;;;1598141;73;708;-67
2021/11/19 06:29:02;;;;;;;;;;;24.20;50.40;;;;;;1598631;73;1940;-66
2021/11/19 06:31:02;;;;;;;;;;;24.50;50.00;;;;;;1596585;74;1588;-64
2021/11/19 06:33:04;;;;;;;;;;;24.60;49.50;;;;;;1570414;75;1177;-62
2021/11/19 06:35:06;;;;;;;;;;;24.60;49.30;;;;;;1597518;73;746;-64
2021/11/19 06:37:08;;;;;;;;;;;24.70;49.20;;;;;;1596913;73;673;-64
2021/11/19 06:39:10;;;;;;;;;;;24.60;48.70;;;;;;1597102;74;662;-63
2021/11/19 06:41:12;;;;;;;;;;;24.70;48.70;;;;;;1598386;74;746;-65
2021/11/19 06:43:14;;;;;;;;;;;24.70;48.70;;;;;;1597188;74;1139;-66
2021/11/19 06:45:16;;;;;;;;;;;24.60;48.60;;;;;;1596303;74;742;-65
2021/11/19 06:47:18;;;;;;;;;;;24.60;48.60;;;;;;1597358;73;746;-66
2021/11/19 06:49:20;;;;;;;;;;;24.60;48.80;;;;;;1596942;73;1952;-65
2021/11/19 06:51:22;;;;;;;;;;;24.60;49.00;;;;;;1596957;74;761;-65
2021/11/19 06:53:26;;;;;;;;;;;24.50;49.40;;;;;;1592743;74;1147;-67
2021/11/19 06:55:27;;;;;;;;;;;24.50;49.50;;;;;;1597675;73;1631;-67
2021/11/19 06:57:29;;;;;;;;;;;24.40;49.50;;;;;;1591256;74;809;-66
2021/11/19 06:59:31;;;;;;;;;;;24.40;49.60;;;;;;1597367;74;802;-64
2021/11/19 07:01:33;;;;;;;;;;;24.40;49.70;;;;;;1597508;73;733;-68
2021/11/19 07:03:35;;;;;;;;;;;24.30;49.80;;;;;;1595974;73;1221;-66
2021/11/19 07:05:36;;;;;;;;;;;24.30;49.80;;;;;;1596680;73;722;-66
2021/11/19 07:07:39;;;;;;;;;;;24.30;49.90;;;;;;1595012;73;724;-67
2021/11/19 07:09:41;;;;;;;;;;;24.30;50.00;;;;;;1597322;73;1925;-66
2021/11/19 07:11:43;;;;;;;;;;;24.30;50.00;;;;;;1596513;73;707;-67
2021/11/19 07:13:48;;;;;;;;;;;24.30;50.10;;;;;;1597160;73;1142;-64
2021/11/19 07:15:48;;;;;;;;;;;24.30;50.00;;;;;;1596719;74;1588;-60
2021/11/19 07:17:50;;;;;;;;;;;24.40;49.90;;;;;;1590568;73;695;-61
2021/11/19 07:19:52;;;;;;;;;;;24.60;49.40;;;;;;1598837;73;822;-62
2021/11/19 07:21:54;;;;;;;;;;;24.50;49.10;;;;;;1597016;73;714;-60
2021/11/19 07:23:56;;;;;;;;;;;24.50;48.90;;;;;;1597354;73;1195;-61
2021/11/19 07:25:58;;;;;;;;;;;24.50;48.80;;;;;;1572355;74;774;-61
2021/11/19 07:28:00;;;;;;;;;;;24.50;48.70;;;;;;1597606;73;777;-61
2021/11/19 07:30:02;;;;;;;;;;;24.40;48.60;;;;;;1597696;73;1944;-61
2021/11/19 07:32:05;;;;;;;;;;;24.50;48.60;;;;;;1597647;73;807;-60
2021/11/19 07:34:07;;;;;;;;;;;24.40;48.50;;;;;;1596071;73;1115;-61
2021/11/19 07:36:09;;;;;;;;;;;24.50;48.50;;;;;;1598048;73;720;-61
2021/11/19 07:38:11;;;;;;;;;;;24.40;48.40;;;;;;1598301;74;669;-60
2021/11/19 07:40:13;;;;;;;;;;;24.50;48.40;;;;;;1599648;73;780;-60
2021/11/19 07:42:15;;;;;;;;;;;24.40;48.40;;;;;;1596918;73;725;-62
2021/11/19 07:44:17;;;;;;;;;;;24.30;48.40;;;;;;1598221;74;1142;-59
2021/11/19 07:46:20;;;;;;;;;;;24.40;48.40;;;;;;1598531;74;795;-60
2021/11/19 07:48:24;;;;;;;;;;;24.40;48.40;;;;;;1594451;73;750;-60
2021/11/19 07:50:25;;;;;;;;;;;24.30;48.40;;;;;;1596096;73;1955;-60
2021/11/19 07:52:27;;;;;;;;;;;24.40;48.40;;;;;;1566843;75;750;-60
2021/11/19 07:54:29;;;;;;;;;;;24.30;48.40;;;;;;1601532;73;1111;-60
2021/11/19 07:56:32;;;;;;;;;;;24.30;48.40;;;;;;1601930;73;793;-64
2021/11/19 07:58:34;;;;;;;;;;;24.30;48.40;;;;;;1601038;73;652;-66
2021/11/19 08:00:36;;;;;;;;;;;24.30;48.30;;;;;;1600790;73;706;-67
2021/11/19 08:02:38;;;;;;;;;;;24.40;48.10;;;;;;1589125;73;1164;-63
2021/11/19 08:04:40;;;;;;;;;;;24.30;47.30;;;;;;1575051;74;740;-66
2021/11/19 08:06:42;;;;;;;;;;;24.30;47.00;;;;;;1600766;73;705;-66
2021/11/19 08:08:46;;;;;;;;;;;24.20;46.70;;;;;;1587248;74;715;-66
2021/11/19 08:10:48;;;;;;;;;;;24.20;46.10;;;;;;1597313;73;1698;-67
2021/11/19 08:12:49;;;;;;;;;;;24.20;45.40;;;;;;1596215;73;1146;-66
2021/11/19 08:14:52;;;;;;;;;;;24.00;44.70;;;;;;1597187;73;748;-68
2021/11/19 08:16:58;;;;;;;;;;;24.00;44.30;;;;;;1597412;74;826;-68
2021/11/19 08:19:01;;;;;;;;;;;24.00;43.80;;;;;;1596926;73;680;-68
2021/11/19 08:21:02;;;;;;;;;;;24.00;43.40;;;;;;1597248;73;827;-71
2021/11/19 08:23:05;;;;;;;;;;;23.90;43.10;;;;;;1588440;73;1170;-67
2021/11/19 08:25:07;;;;;;;;;;;23.90;42.80;;;;;;1596772;73;717;-69
2021/11/19 08:27:17;;;;;;;;;;;23.80;42.30;;;;;;1600895;73;670;-67
2021/11/19 08:29:24;;;;;;;;;;;23.70;42.00;;;;;;1589437;74;1932;-68
2021/11/19 08:31:26;;;;;;;;;;;23.70;41.90;;;;;;1595424;73;842;-67
2021/11/19 08:33:28;;;;;;;;;;;23.70;41.60;;;;;;1596605;73;1151;-67
2021/11/19 08:35:29;;;;;;;;;;;23.60;41.20;;;;;;1593350;73;699;-67
2021/11/19 08:37:31;;;;;;;;;;;23.60;41.00;;;;;;1564977;74;722;-67
2021/11/19 08:39:33;;;;;;;;;;;23.50;40.70;;;;;;1565512;74;730;-65
2021/11/19 08:41:35;;;;;;;;;;;23.50;41.00;;;;;;1569062;74;781;-66
2021/11/19 08:43:38;;;;;;;;;;;23.50;41.10;;;;;;1567410;74;1160;-67
2021/11/19 08:45:40;;;;;;;;;;;23.50;41.20;;;;;;1569808;74;806;-65
2021/11/19 08:47:42;;;;;;;;;;;23.40;41.10;;;;;;1607139;73;793;-65
2021/11/19 08:49:44;;;;;;;;;;;23.40;41.10;;;;;;1593552;73;1940;-65
2021/11/19 08:51:46;;;;;;;;;;;23.50;41.30;;;;;;1595298;73;692;-69
2021/11/19 08:53:49;;;;;;;;;;;23.40;41.30;;;;;;1582514;74;1171;-68
2021/11/19 08:55:52;;;;;;;;;;;23.30;41.30;;;;;;1592569;73;760;-66
2021/11/19 08:57:55;;;;;;;;;;;23.40;41.30;;;;;;1584005;73;739;-65
2021/11/19 08:59:57;;;;;;;;;;;23.30;41.40;;;;;;1583673;73;738;-65
2021/11/19 09:01:59;;;;;;;;;;;23.40;41.40;;;;;;1592877;73;785;-65
2021/11/19 09:04:01;;;;;;;;;;;23.30;41.40;;;;;;1598964;73;1172;-65
2021/11/19 09:06:03;;;;;;;;;;;23.30;41.50;;;;;;1585685;74;727;-67
2021/11/19 09:08:06;;;;;;;;;;;23.30;41.40;;;;;;1559006;74;835;-65
2021/11/19 09:10:09;;;;;;;;;;;23.30;41.30;;;;;;1593585;73;1916;-65
2021/11/19 09:12:11;;;;;;;;;;;23.20;41.30;;;;;;1579057;74;659;-65
2021/11/19 09:14:13;;;;;;;;;;;23.20;41.30;;;;;;1591676;74;1139;-65
2021/11/19 09:16:15;;;;;;;;;;;23.20;41.30;;;;;;1589716;73;778;-64
2021/11/19 09:18:21;;;;;;;;;;;23.20;41.30;;;;;;1589029;73;752;-68
2021/11/19 09:20:28;;;;;;;;;;;23.20;41.20;;;;;;1594691;73;736;-70
2021/11/19 09:22:34;;;;;;;;;;;23.20;41.30;;;;;;1591535;73;1853;-68
2021/11/19 09:24:37;;;;;;;;;;;23.20;41.40;;;;;;1564550;74;1194;-68
2021/11/19 09:26:40;;;;;;;;;;;23.20;41.60;;;;;;1556550;74;777;-63
2021/11/19 09:28:43;;;;;;;;;;;23.20;41.80;;;;;;1566885;74;837;-65
2021/11/19 09:30:46;;;;;;;;;;;23.20;41.70;;;;;;1566990;74;1927;-66
2021/11/19 09:32:49;;;;;;;;;;;23.20;41.40;;;;;;1572894;75;1177;-66
2021/11/19 09:34:52;;;;;;;;;;;23.10;41.30;;;;;;1573613;74;753;-66
2021/11/19 09:36:54;;;;;;;;;;;23.10;41.20;;;;;;1559464;74;709;-66
2021/11/19 09:38:56;;;;;;;;;;;23.10;41.30;;;;;;1586613;74;801;-66
2021/11/19 09:40:59;;;;;;;;;;;23.20;41.10;;;;;;1585195;74;772;-65
2021/11/19 09:43:03;;;;;;;;;;;23.20;41.00;;;;;;1587139;74;1203;-65
2021/11/19 09:45:23;;;;;;;;;;;23.10;41.00;;;;;;1586205;74;678;-69
2021/11/19 09:47:26;;;;;;;;;;;23.20;41.00;;;;;;1579731;73;699;-68
2021/11/19 09:49:33;;;;;;;;;;;23.10;41.00;;;;;;1586296;73;1898;-67
2021/11/19 09:51:53;;;;;;;;;;;23.10;41.00;;;;;;1592573;73;889;-67
2021/11/19 09:54:13;;;;;;;;;;;23.10;41.10;;;;;;1580450;73;2053;-65
2021/11/19 09:56:33;;;;;;;;;;;23.10;41.20;;;;;;1546752;75;774;-67
2021/11/19 09:58:39;;;;;;;;;;;23.10;41.20;;;;;;1589800;74;814;-67
2021/11/19 10:01:00;;;;;;;;;;;23.10;41.10;;;;;;1592981;74;832;-65
2021/11/19 10:03:12;;;;;;;;;;;23.10;41.00;;;;;;1580799;74;1191;-66
2021/11/19 10:05:22;;;;;;;;;;;23.10;40.70;;;;;;1569789;74;692;-68
2021/11/19 10:07:26;;;;;;;;;;;23.10;41.10;;;;;;1567849;74;777;-65
2021/11/19 10:12:12;;;;;;;;;;;23.00;41.10;;;;;;1568723;74;1670;-69
2021/11/19 10:14:21;;;;;;;;;;;23.00;41.10;;;;;;1568590;74;1814;-66
2021/11/19 10:16:28;;;;;;;;;;;23.00;40.90;;;;;;1566977;75;733;-67
2021/11/19 10:18:48;;;;;;;;;;;23.00;40.80;;;;;;1565302;75;784;-67
2021/11/19 10:20:51;;;;;;;;;;;23.00;40.70;;;;;;1565883;75;701;-68
2021/11/19 10:22:55;;;;;;;;;;;23.00;40.60;;;;;;1569934;75;696;-67
2021/11/19 10:25:04;;;;;;;;;;;23.00;40.60;;;;;;1569607;74;1194;-67
2021/11/19 10:27:07;;;;;;;;;;;22.90;40.60;;;;;;1567698;75;1649;-69
2021/11/19 10:29:25;;;;;;;;;;;22.90;40.50;;;;;;1569696;75;715;-66
2021/11/19 10:31:28;;;;;;;;;;;23.00;40.60;;;;;;1572839;75;1918;-66
2021/11/19 10:33:31;;;;;;;;;;;22.90;40.60;;;;;;1569860;74;1144;-68
2021/11/19 10:35:36;;;;;;;;;;;23.00;40.60;;;;;;1566322;74;760;-67
2021/11/19 10:37:43;;;;;;;;;;;22.90;40.50;;;;;;1562929;75;1533;-68
2021/11/19 10:39:59;;;;;;;;;;;22.90;40.60;;;;;;1570677;74;774;-66
2021/11/19 10:42:05;;;;;;;;;;;22.90;40.60;;;;;;1562238;74;689;-67
2021/11/19 10:44:08;;;;;;;;;;;22.90;40.60;;;;;;1577662;74;1123;-68
2021/11/19 10:46:12;;;;;;;;;;;22.90;40.70;;;;;;1570163;74;704;-69
2021/11/19 10:48:32;;;;;;;;;;;22.90;40.70;;;;;;1570017;74;2060;-67
2021/11/19 10:50:52;;;;;;;;;;;22.90;40.70;;;;;;1569940;75;1912;-67
2021/11/19 10:53:09;;;;;;;;;;;22.90;40.80;;;;;;1566869;74;834;-67
2021/11/19 10:55:18;;;;;;;;;;;22.90;40.70;;;;;;1574361;74;829;-67
2021/11/19 10:57:34;;;;;;;;;;;22.80;40.70;;;;;;1567352;74;727;-67
2021/11/19 10:59:40;;;;;;;;;;;22.80;40.70;;;;;;1571110;74;942;-70
2021/11/19 11:01:45;;;;;;;;;;;22.80;40.80;;;;;;1572429;74;766;-64
2021/11/19 11:03:59;;;;;;;;;;;22.80;40.60;;;;;;1569811;74;1127;-67
2021/11/19 11:06:01;;;;;;;;;;;22.80;40.60;;;;;;1559704;74;1992;-68
2021/11/19 11:08:05;;;;;;;;;;;22.80;40.60;;;;;;1580804;74;801;-67
2021/11/19 11:10:14;;;;;;;;;;;22.80;40.70;;;;;;1567827;75;1925;-70
2021/11/19 11:12:21;;;;;;;;;;;22.80;40.80;;;;;;1571059;75;657;-68
2021/11/19 11:14:25;;;;;;;;;;;22.80;40.80;;;;;;1563510;74;1140;-67
2021/11/19 11:16:29;;;;;;;;;;;22.70;41.10;;;;;;1570305;74;1945;-67
2021/11/19 11:18:35;;;;;;;;;;;22.80;41.00;;;;;;1562641;75;1877;-67
2021/11/19 11:20:38;;;;;;;;;;;22.70;40.90;;;;;;1569785;74;792;-69
2021/11/19 11:22:40;;;;;;;;;;;22.80;40.90;;;;;;1569628;75;737;-67
2021/11/19 11:25:01;;;;;;;;;;;22.80;40.90;;;;;;1525710;76;1166;-66
2021/11/19 11:27:04;;;;;;;;;;;22.80;40.90;;;;;;1567483;75;1640;-67
2021/11/19 11:29:10;;;;;;;;;;;22.70;40.80;;;;;;1571665;75;667;-67
2021/11/19 11:31:16;;;;;;;;;;;22.70;41.00;;;;;;1570070;75;1932;-66
2021/11/19 11:33:23;;;;;;;;;;;22.70;41.00;;;;;;1565266;74;1912;-66
2021/11/19 11:35:43;;;;;;;;;;;22.80;41.00;;;;;;1570158;75;998;-67
2021/11/19 11:37:48;;;;;;;;;;;22.70;41.00;;;;;;1569975;75;770;-67
2021/11/19 11:39:56;;;;;;;;;;;22.80;41.00;;;;;;1581385;74;713;-67
2021/11/19 11:42:02;;;;;;;;;;;22.80;41.10;;;;;;1566432;75;1822;-66
2021/11/19 11:44:05;;;;;;;;;;;22.80;41.00;;;;;;1569257;74;1122;-67
2021/11/19 11:46:27;;;;;;;;;;;22.70;41.00;;;;;;1554185;75;682;-66
2021/11/19 11:48:40;;;;;;;;;;;22.80;41.00;;;;;;1570158;74;777;-68
2021/11/19 11:50:46;;;;;;;;;;;22.70;41.20;;;;;;1565580;75;1911;-63
2021/11/19 11:53:06;;;;;;;;;;;22.70;41.10;;;;;;1569388;74;761;-68
2021/11/19 11:55:19;;;;;;;;;;;22.70;41.20;;;;;;1568513;74;809;-67
2021/11/19 11:57:31;;;;;;;;;;;22.70;41.10;;;;;;1565145;74;708;-67
2021/11/19 11:59:34;;;;;;;;;;;22.70;41.10;;;;;;1572744;74;764;-67
2021/11/19 12:01:49;;;;;;;;;;;22.70;41.10;;;;;;1569990;75;726;-70
2021/11/19 12:03:53;;;;;;;;;;;22.70;41.10;;;;;;1571530;74;1148;-68
2021/11/19 12:06:14;;;;;;;;;;;22.70;41.10;;;;;;1571054;75;775;-67
2021/11/19 12:08:34;;;;;;;;;;;22.70;41.20;;;;;;1573373;75;721;-67
2021/11/19 12:10:53;;;;;;;;;;;22.60;41.20;;;;;;1568902;75;1922;-67
2021/11/19 12:12:57;;;;;;;;;;;22.60;41.10;;;;;;1568859;75;775;-67
2021/11/19 12:15:09;;;;;;;;;;;22.60;41.10;;;;;;1562974;75;1890;-67
2021/11/19 12:17:29;;;;;;;;;;;22.60;41.20;;;;;;1579070;75;1964;-67
2021/11/19 12:19:50;;;;;;;;;;;22.70;41.30;;;;;;1565543;74;809;-67
2021/11/19 12:22:06;;;;;;;;;;;22.70;41.30;;;;;;1571318;74;808;-67
2021/11/19 12:24:16;;;;;;;;;;;22.60;41.20;;;;;;1573143;75;1147;-66